createdAt,value
2019-04-24T00:00:35.461Z,11.43
2019-04-24T00:02:44.757Z,11.44
2019-04-24T00:03:32.084Z,11.45
2019-04-24T00:04:36.143Z,11.37
2019-04-24T00:05:43.177Z,11.32
2019-04-24T00:07:23.734Z,11.29
2019-04-24T00:09:21.844Z,11.19
2019-04-24T00:10:37.738Z,11.23
2019-04-24T00:12:43.224Z,11.10
2019-04-24T00:13:44.294Z,10.99
2019-04-24T00:14:33.819Z,11.07
2019-04-24T00:17:43.923Z,10.93
2019-04-24T00:18:46.353Z,10.99
2019-04-24T00:19:32.029Z,10.94
2019-04-24T00:20:30.608Z,10.93
2019-04-24T00:21:21.421Z,11.02
2019-04-24T00:22:18.213Z,10.90
2019-04-24T00:23:27.254Z,10.94
2019-04-24T00:24:28.975Z,10.89
2019-04-24T00:25:30.441Z,10.89
2019-04-24T00:28:24.663Z,10.94
2019-04-24T00:29:36.014Z,10.96
2019-04-24T00:30:27.498Z,10.96
2019-04-24T00:31:26.640Z,10.99
2019-04-24T00:32:21.767Z,10.99
2019-04-24T00:34:22.932Z,10.96
2019-04-24T00:35:31.391Z,11.02
2019-04-24T00:36:43.994Z,11.05
2019-04-24T00:37:29.637Z,11.08
2019-04-24T00:38:29.986Z,11.08
2019-04-24T00:40:23.157Z,11.12
2019-04-24T00:42:23.382Z,11.23
2019-04-24T00:44:16.498Z,11.23
2019-04-24T00:45:29.917Z,11.23
2019-04-24T00:46:37.382Z,11.23
2019-04-24T00:49:27.578Z,11.18
2019-04-24T00:50:30.139Z,11.26
2019-04-24T00:51:39.651Z,11.26
2019-04-24T00:52:20.282Z,11.27
2019-04-24T00:55:47.351Z,11.22
2019-04-24T00:56:46.308Z,11.19
2019-04-24T00:58:24.474Z,11.12
2019-04-24T00:59:36.348Z,11.25
2019-04-24T01:00:24.514Z,11.14
2019-04-24T01:02:20.244Z,11.26
2019-04-24T01:03:35.194Z,11.22
2019-04-24T01:04:54.460Z,11.26
2019-04-24T01:05:31.704Z,11.23
2019-04-24T01:06:27.482Z,11.11
2019-04-24T01:09:28.786Z,11.11
2019-04-24T01:11:19.062Z,11.02
2019-04-24T01:13:21.496Z,10.94
2019-04-24T01:14:21.129Z,10.99
2019-04-24T01:15:38.757Z,10.94
2019-04-24T01:17:30.139Z,10.90
2019-04-24T01:18:21.788Z,10.86
2019-04-24T01:19:29.890Z,10.89
2019-04-24T01:21:44.584Z,10.82
2019-04-24T01:22:49.413Z,10.81
2019-04-24T01:23:18.732Z,10.87
2019-04-24T01:24:26.710Z,10.76
2019-04-24T01:26:24.015Z,10.74
2019-04-24T01:27:25.106Z,10.79
2019-04-24T01:28:23.540Z,10.67
2019-04-24T01:29:24.167Z,10.67
2019-04-24T01:30:47.088Z,10.64
2019-04-24T01:31:22.968Z,10.61
2019-04-24T01:32:32.512Z,10.63
2019-04-24T01:33:30.339Z,10.57
2019-04-24T01:34:33.646Z,10.63
2019-04-24T01:35:27.793Z,10.54
2019-04-24T01:36:39.014Z,10.61
2019-04-24T01:38:30.835Z,10.54
2019-04-24T01:39:36.549Z,10.53
2019-04-24T01:40:19.655Z,10.59
2019-04-24T01:41:26.437Z,10.53
2019-04-24T01:42:26.636Z,10.51
2019-04-24T01:43:28.613Z,10.56
2019-04-24T01:44:31.944Z,10.51
2019-04-24T01:46:23.187Z,10.54
2019-04-24T01:49:34.998Z,10.41
2019-04-24T01:50:29.490Z,10.53
2019-04-24T01:52:33.325Z,10.33
2019-04-24T01:53:26.483Z,10.37
2019-04-24T01:55:18.435Z,10.31
2019-04-24T01:56:39.952Z,10.28
2019-04-24T01:59:30.541Z,10.15
2019-04-24T02:00:33.972Z,10.12
2019-04-24T02:01:24.420Z,10.05
2019-04-24T02:03:23.603Z,10.13
2019-04-24T02:04:33.669Z,10.12
2019-04-24T02:05:20.068Z,10.13
2019-04-24T02:06:19.555Z,9.97
2019-04-24T02:08:29.220Z,9.95
2019-04-24T02:09:33.162Z,9.94
2019-04-24T02:12:37.376Z,9.82
2019-04-24T02:14:38.734Z,9.76
2019-04-24T02:16:21.175Z,9.77
2019-04-24T02:17:33.421Z,9.77
2019-04-24T02:19:22.744Z,9.68
2019-04-24T02:19:29.508Z,9.72
2019-04-24T02:21:26.550Z,9.68
2019-04-24T02:22:31.300Z,9.72
2019-04-24T02:25:38.009Z,9.76
2019-04-24T02:26:22.216Z,9.68
2019-04-24T02:27:35.155Z,9.74
2019-04-24T02:29:26.513Z,9.72
2019-04-24T02:30:33.151Z,9.73
2019-04-24T02:35:54.129Z,9.64
2019-04-24T02:36:37.694Z,9.72
2019-04-24T02:38:39.973Z,9.69
2019-04-24T02:39:42.938Z,9.74
2019-04-24T02:41:53.620Z,9.59
2019-04-24T02:44:48.275Z,9.65
2019-04-24T02:46:31.165Z,9.76
2019-04-24T02:47:37.019Z,9.77
2019-04-24T02:49:43.137Z,9.73
2019-04-24T02:50:23.001Z,9.73
2019-04-24T02:52:39.707Z,9.77
2019-04-24T02:53:31.375Z,9.77
2019-04-24T02:55:16.816Z,9.79
2019-04-24T02:56:36.010Z,9.80
2019-04-24T02:58:45.997Z,9.82
2019-04-24T02:59:33.874Z,9.86
2019-04-24T03:00:36.225Z,9.84
2019-04-24T03:03:35.004Z,9.87
2019-04-24T03:04:35.463Z,9.83
2019-04-24T03:05:37.553Z,9.92
2019-04-24T03:08:51.770Z,9.99
2019-04-24T03:09:33.486Z,9.98
2019-04-24T03:10:35.672Z,10.04
2019-04-24T03:13:32.653Z,10.26
2019-04-24T03:18:47.481Z,10.16
2019-04-24T03:21:42.356Z,10.09
2019-04-24T03:22:35.973Z,10.12
2019-04-24T03:23:33.936Z,10.07
2019-04-24T03:27:36.621Z,10.04
2019-04-24T03:28:32.102Z,10.12
2019-04-24T03:29:34.732Z,10.07
2019-04-24T03:30:46.946Z,9.97
2019-04-24T03:33:51.960Z,9.98
2019-04-24T03:42:22.882Z,9.91
2019-04-24T03:43:55.214Z,9.97
2019-04-24T03:46:27.677Z,9.86
2019-04-24T03:47:50.409Z,9.80
2019-04-24T03:48:34.486Z,9.80
2019-04-24T03:49:42.900Z,9.79
2019-04-24T03:50:59.998Z,9.91
2019-04-24T03:52:21.939Z,9.94
2019-04-24T03:53:57.656Z,9.98
2019-04-24T03:54:25.054Z,9.86
2019-04-24T03:56:34.624Z,9.91
2019-04-24T03:57:47.157Z,9.99
2019-04-24T03:59:34.760Z,9.94
2019-04-24T04:01:33.698Z,9.87
2019-04-24T04:03:25.802Z,9.91
2019-04-24T04:05:23.093Z,9.98
2019-04-24T04:06:46.704Z,9.98
2019-04-24T04:07:17.225Z,9.99
2019-04-24T04:08:43.175Z,9.98
2019-04-24T04:10:32.721Z,9.99
2019-04-24T04:13:35.434Z,9.86
2019-04-24T04:16:46.390Z,9.76
2019-04-24T04:17:48.926Z,9.72
2019-04-24T04:19:42.054Z,9.76
2019-04-24T04:20:37.068Z,9.62
2019-04-24T04:25:38.805Z,9.50
2019-04-24T04:27:45.484Z,9.50
2019-04-24T04:28:33.417Z,9.51
2019-04-24T04:30:52.049Z,9.51
2019-04-24T04:31:40.953Z,9.41
2019-04-24T04:32:55.097Z,9.44
2019-04-24T04:34:52.088Z,9.50
2019-04-24T04:35:21.924Z,9.55
2019-04-24T04:36:41.825Z,9.61
2019-04-24T04:37:18.767Z,9.54
2019-04-24T04:38:33.626Z,9.61
2019-04-24T04:39:31.201Z,9.65
2019-04-24T04:40:40.802Z,9.54
2019-04-24T04:42:37.141Z,9.51
2019-04-24T04:43:41.833Z,9.48
2019-04-24T04:44:42.432Z,9.34
2019-04-24T04:46:45.886Z,9.37
2019-04-24T04:50:39.853Z,9.50
2019-04-24T04:51:31.145Z,9.46
2019-04-24T04:55:21.639Z,9.76
2019-04-24T04:56:34.169Z,9.79
2019-04-24T04:57:35.805Z,9.83
2019-04-24T04:59:24.905Z,9.84
2019-04-24T05:02:39.211Z,9.98
2019-04-24T05:03:26.445Z,10.09
2019-04-24T05:04:37.229Z,10.13
2019-04-24T05:05:54.477Z,10.15
2019-04-24T05:07:32.779Z,10.30
2019-04-24T05:10:39.489Z,10.49
2019-04-24T05:12:26.778Z,10.86
2019-04-24T05:12:40.305Z,10.59
2019-04-24T05:13:21.847Z,10.94
2019-04-24T05:16:50.898Z,11.45
2019-04-24T05:17:34.245Z,11.70
2019-04-24T05:18:32.802Z,12.03
2019-04-24T05:20:31.808Z,12.49
2019-04-24T05:21:33.475Z,12.67
2019-04-24T05:22:21.901Z,13.05
2019-04-24T05:27:31.911Z,14.35
2019-04-24T05:28:36.804Z,14.55
2019-04-24T05:30:21.818Z,15.00
2019-04-24T05:31:27.252Z,15.15
2019-04-24T05:32:36.536Z,15.33
2019-04-24T05:33:28.239Z,15.57
2019-04-24T05:34:34.306Z,15.70
2019-04-24T05:35:26.307Z,15.92
2019-04-24T05:36:22.121Z,15.98
2019-04-24T05:37:30.355Z,16.15
2019-04-24T05:38:12.311Z,16.02
2019-04-24T05:41:21.473Z,15.14
2019-04-24T05:42:42.438Z,15.24
2019-04-24T05:43:27.083Z,15.35
2019-04-24T05:44:18.845Z,15.72
2019-04-24T05:45:28.970Z,15.92
2019-04-24T05:46:25.688Z,16.26
2019-04-24T05:47:21.046Z,16.53
2019-04-24T05:49:30.233Z,16.91
2019-04-24T05:51:22.593Z,16.71
2019-04-24T05:52:33.108Z,16.57
2019-04-24T05:53:16.938Z,16.54
2019-04-24T05:55:38.217Z,16.87
2019-04-24T05:56:30.902Z,17.09
2019-04-24T05:58:28.104Z,17.54
2019-04-24T06:00:27.682Z,17.72
2019-04-24T06:02:37.953Z,18.08
2019-04-24T06:03:50.675Z,18.07
2019-04-24T06:06:33.213Z,18.08
2019-04-24T06:07:22.439Z,18.08
2019-04-24T06:08:19.071Z,18.18
2019-04-24T06:10:35.688Z,18.38
2019-04-24T06:11:37.088Z,18.41
2019-04-24T06:13:22.145Z,18.52
2019-04-24T06:14:21.087Z,18.45
2019-04-24T06:15:34.571Z,18.15
2019-04-24T06:16:20.893Z,18.35
2019-04-24T06:18:26.911Z,17.90
2019-04-24T06:20:43.976Z,17.64
2019-04-24T06:21:28.491Z,17.67
2019-04-24T06:22:19.696Z,17.27
2019-04-24T06:23:41.479Z,16.78
2019-04-24T06:24:21.514Z,17.08
2019-04-24T06:25:32.711Z,17.33
2019-04-24T06:26:20.385Z,17.04
2019-04-24T06:28:29.264Z,16.83
2019-04-24T06:31:49.111Z,17.63
2019-04-24T06:33:34.147Z,17.68
2019-04-24T06:34:19.549Z,17.92
2019-04-24T06:36:23.401Z,18.22
2019-04-24T06:38:33.731Z,18.45
2019-04-24T06:39:23.460Z,18.26
2019-04-24T06:41:23.959Z,18.16
2019-04-24T06:42:22.048Z,18.03
2019-04-24T06:44:35.176Z,18.19
2019-04-24T06:45:19.263Z,18.31
2019-04-24T06:46:29.009Z,18.59
2019-04-24T06:48:12.383Z,18.56
2019-04-24T06:50:31.342Z,18.80
2019-04-24T06:51:16.202Z,18.84
2019-04-24T06:52:30.476Z,18.99
2019-04-24T06:53:25.069Z,19.41
2019-04-24T06:55:14.942Z,19.62
2019-04-24T06:56:30.872Z,19.64
2019-04-24T06:57:24.590Z,19.49
2019-04-24T06:58:42.347Z,19.29
2019-04-24T06:59:20.695Z,19.30
2019-04-24T07:01:18.985Z,19.52
2019-04-24T07:02:18.141Z,19.55
2019-04-24T07:03:14.865Z,19.54
2019-04-24T07:06:35.144Z,19.00
2019-04-24T07:07:29.319Z,19.02
2019-04-24T07:07:59.744Z,19.04
2019-04-24T07:10:32.671Z,18.40
2019-04-24T07:11:37.504Z,18.35
2019-04-24T07:12:27.350Z,18.25
2019-04-24T07:14:10.020Z,18.49
2019-04-24T07:15:19.635Z,18.43
2019-04-24T07:16:17.053Z,18.15
2019-04-24T07:18:23.975Z,18.33
2019-04-24T07:19:01.926Z,18.99
2019-04-24T07:20:32.408Z,19.02
2019-04-24T07:24:19.223Z,20.59
2019-04-24T07:25:24.414Z,20.36
2019-04-24T07:26:29.249Z,20.37
2019-04-24T07:27:38.298Z,19.92
2019-04-24T07:28:24.962Z,19.81
2019-04-24T07:29:24.021Z,20.16
2019-04-24T07:30:18.093Z,19.85
2019-04-24T07:31:27.028Z,19.47
2019-04-24T07:32:15.493Z,19.54
2019-04-24T07:34:27.275Z,19.79
2019-04-24T07:35:25.186Z,20.07
2019-04-24T07:36:29.478Z,20.22
2019-04-24T07:37:20.469Z,20.81
2019-04-24T07:38:18.664Z,21.33
2019-04-24T07:39:19.291Z,21.03
2019-04-24T07:40:22.451Z,20.96
2019-04-24T07:41:45.553Z,20.80
2019-04-24T07:44:13.037Z,20.43
2019-04-24T07:46:16.853Z,20.19
2019-04-24T07:47:18.573Z,20.02
2019-04-24T07:48:20.266Z,20.04
2019-04-24T07:50:19.887Z,19.96
2019-04-24T07:52:24.973Z,19.52
2019-04-24T07:54:23.078Z,19.51
2019-04-24T07:55:08.235Z,19.41
2019-04-24T07:56:34.543Z,19.81
2019-04-24T07:57:13.936Z,20.00
2019-04-24T07:58:20.732Z,20.11
2019-04-24T08:00:20.975Z,20.55
2019-04-24T08:03:15.547Z,20.07
2019-04-24T08:05:19.598Z,20.25
2019-04-24T08:06:23.612Z,19.79
2019-04-24T08:07:26.645Z,19.91
2019-04-24T08:08:22.232Z,20.37
2019-04-24T08:09:26.620Z,21.05
2019-04-24T08:10:33.704Z,21.24
2019-04-24T08:11:12.706Z,21.21
2019-04-24T08:12:18.801Z,21.54
2019-04-24T08:13:17.173Z,21.22
2019-04-24T08:14:31.813Z,21.40
2019-04-24T08:16:08.548Z,21.89
2019-04-24T08:18:14.451Z,21.66
2019-04-24T08:19:31.583Z,21.98
2019-04-24T08:20:20.660Z,21.91
2019-04-24T08:21:17.798Z,22.30
2019-04-24T08:22:26.769Z,22.02
2019-04-24T08:23:33.480Z,21.54
2019-04-24T08:24:27.904Z,21.93
2019-04-24T08:26:09.808Z,22.48
2019-04-24T08:27:27.799Z,21.95
2019-04-24T08:28:22.454Z,22.10
2019-04-24T08:29:10.361Z,22.51
2019-04-24T08:30:17.919Z,23.06
2019-04-24T08:33:27.268Z,23.88
2019-04-24T08:34:34.315Z,24.57
2019-04-24T08:35:22.986Z,25.18
2019-04-24T08:36:13.203Z,25.53
2019-04-24T08:37:24.425Z,25.65
2019-04-24T08:38:22.510Z,25.29
2019-04-24T08:41:22.920Z,22.26
2019-04-24T08:42:30.173Z,22.04
2019-04-24T08:44:18.827Z,21.52
2019-04-24T08:45:14.507Z,20.95
2019-04-24T08:46:19.935Z,21.39
2019-04-24T08:47:32.519Z,21.55
2019-04-24T08:48:32.728Z,22.14
2019-04-24T08:49:32.667Z,22.65
2019-04-24T08:52:27.466Z,23.17
2019-04-24T08:53:09.968Z,22.91
2019-04-24T08:54:13.094Z,22.38
2019-04-24T08:55:31.946Z,21.92
2019-04-24T08:56:18.250Z,21.83
2019-04-24T08:57:25.619Z,22.35
2019-04-24T08:58:22.377Z,22.83
2019-04-24T08:59:40.896Z,22.48
2019-04-24T09:00:16.537Z,22.02
2019-04-24T09:01:42.924Z,22.25
2019-04-24T09:02:04.746Z,22.14
2019-04-24T09:05:37.608Z,21.51
2019-04-24T09:06:30.052Z,21.48
2019-04-24T09:07:18.441Z,21.64
2019-04-24T09:09:14.761Z,21.83
2019-04-24T09:11:31.310Z,21.57
2019-04-24T09:12:16.568Z,22.28
2019-04-24T09:13:36.521Z,22.51
2019-04-24T09:14:20.356Z,22.83
2019-04-24T09:15:23.280Z,22.83
2019-04-24T09:17:10.540Z,21.89
2019-04-24T09:20:23.779Z,22.22
2019-04-24T09:22:25.855Z,22.38
2019-04-24T09:27:24.517Z,23.46
2019-04-24T09:28:18.460Z,23.88
2019-04-24T09:29:23.553Z,23.62
2019-04-24T09:34:07.464Z,22.39
2019-04-24T09:35:15.273Z,22.98
2019-04-24T09:36:29.792Z,23.91
2019-04-24T09:37:15.916Z,24.20
2019-04-24T09:38:20.449Z,23.12
2019-04-24T09:41:27.796Z,22.81
2019-04-24T09:42:47.949Z,23.41
2019-04-24T09:44:09.412Z,23.39
2019-04-24T09:47:28.701Z,24.14
2019-04-24T09:48:21.520Z,24.20
2019-04-24T09:49:05.534Z,24.21
2019-04-24T09:50:25.021Z,24.45
2019-04-24T09:51:14.754Z,25.06
2019-04-24T09:52:18.378Z,25.08
2019-04-24T09:54:12.276Z,24.78
2019-04-24T09:55:18.296Z,24.11
2019-04-24T09:56:10.831Z,23.87
2019-04-24T09:59:24.643Z,23.65
2019-04-24T10:00:19.753Z,23.48
2019-04-24T10:03:18.803Z,23.81
2019-04-24T10:06:17.293Z,24.60
2019-04-24T10:09:15.374Z,24.91
2019-04-24T10:10:16.838Z,24.92
2019-04-24T10:11:32.664Z,24.60
2019-04-24T10:13:08.499Z,24.29
2019-04-24T10:14:19.197Z,23.80
2019-04-24T10:15:13.355Z,24.23
2019-04-24T10:16:10.465Z,24.45
2019-04-24T10:17:14.039Z,23.81
2019-04-24T10:18:11.486Z,23.51
2019-04-24T10:19:29.973Z,23.78
2019-04-24T10:20:15.090Z,24.42
2019-04-24T10:21:12.911Z,24.30
2019-04-24T10:22:04.951Z,24.76
2019-04-24T10:23:05.125Z,25.36
2019-04-24T10:25:22.053Z,25.72
2019-04-24T10:26:12.656Z,25.73
2019-04-24T10:28:15.960Z,25.73
2019-04-24T10:30:28.261Z,25.78
2019-04-24T10:31:18.695Z,26.21
2019-04-24T10:32:21.790Z,26.03
2019-04-24T10:33:12.479Z,26.21
2019-04-24T10:34:13.210Z,26.29
2019-04-24T10:35:19.500Z,26.53
2019-04-24T10:36:12.141Z,25.72
2019-04-24T10:38:23.553Z,25.66
2019-04-24T10:39:28.339Z,25.98
2019-04-24T10:41:19.629Z,26.23
2019-04-24T10:42:12.210Z,25.11
2019-04-24T10:43:23.336Z,24.66
2019-04-24T10:44:18.643Z,25.18
2019-04-24T10:45:18.484Z,25.77
2019-04-24T10:46:15.647Z,26.37
2019-04-24T10:47:36.451Z,26.66
2019-04-24T10:48:19.333Z,26.71
2019-04-24T10:49:25.082Z,26.29
2019-04-24T10:50:05.517Z,26.16
2019-04-24T10:51:39.810Z,25.78
2019-04-24T10:52:11.663Z,25.69
2019-04-24T10:53:13.057Z,25.38
2019-04-24T10:54:08.932Z,25.25
2019-04-24T10:55:15.990Z,25.16
2019-04-24T10:56:30.739Z,24.76
2019-04-24T10:57:13.060Z,25.07
2019-04-24T10:58:29.928Z,25.43
2019-04-24T10:59:03.412Z,26.00
2019-04-24T11:00:19.361Z,26.07
2019-04-24T11:01:23.612Z,25.85
2019-04-24T11:03:18.884Z,25.23
2019-04-24T11:04:40.761Z,25.46
2019-04-24T11:05:26.153Z,25.44
2019-04-24T11:06:14.603Z,25.35
2019-04-24T11:07:37.272Z,25.66
2019-04-24T11:08:25.508Z,25.98
2019-04-24T11:10:30.262Z,25.44
2019-04-24T11:11:11.116Z,25.85
2019-04-24T11:12:16.358Z,26.43
2019-04-24T11:13:16.994Z,27.10
2019-04-24T11:15:22.019Z,27.74
2019-04-24T11:17:29.280Z,25.23
2019-04-24T11:18:20.650Z,25.22
2019-04-24T11:19:20.044Z,25.07
2019-04-24T11:20:16.135Z,25.29
2019-04-24T11:21:36.574Z,25.54
2019-04-24T11:22:15.118Z,25.68
2019-04-24T11:23:27.863Z,26.09
2019-04-24T11:25:23.777Z,26.51
2019-04-24T11:26:22.222Z,26.53
2019-04-24T11:28:22.176Z,26.00
2019-04-24T11:29:09.862Z,25.84
2019-04-24T11:30:18.670Z,25.83
2019-04-24T11:31:17.767Z,26.06
2019-04-24T11:32:34.837Z,25.99
2019-04-24T11:33:23.674Z,25.99
2019-04-24T11:35:17.258Z,26.21
2019-04-24T11:36:15.180Z,26.21
2019-04-24T11:37:09.388Z,26.53
2019-04-24T11:38:19.091Z,26.77
2019-04-24T11:39:46.251Z,27.35
2019-04-24T11:40:38.545Z,27.54
2019-04-24T11:41:15.476Z,27.39
2019-04-24T11:42:10.406Z,27.44
2019-04-24T11:43:03.260Z,27.33
2019-04-24T11:44:16.468Z,27.10
2019-04-24T11:45:23.216Z,27.49
2019-04-24T11:46:39.732Z,27.12
2019-04-24T11:47:29.956Z,26.70
2019-04-24T11:50:36.591Z,26.55
2019-04-24T11:51:29.161Z,26.97
2019-04-24T11:52:23.809Z,26.97
2019-04-24T11:54:09.559Z,27.37
2019-04-24T11:56:08.302Z,27.74
2019-04-24T11:57:36.036Z,28.27
2019-04-24T11:58:46.608Z,27.93
2019-04-24T11:59:53.785Z,27.65
2019-04-24T12:00:59.773Z,26.78
2019-04-24T12:02:25.348Z,25.88
2019-04-24T12:03:04.745Z,26.21
2019-04-24T12:04:16.916Z,26.81
2019-04-24T12:07:12.050Z,27.48
2019-04-24T12:08:19.617Z,26.55
2019-04-24T12:09:02.540Z,26.33
2019-04-24T12:10:24.701Z,26.89
2019-04-24T12:11:26.185Z,27.37
2019-04-24T12:12:09.741Z,27.75
2019-04-24T12:14:07.607Z,27.48
2019-04-24T12:15:09.091Z,27.26
2019-04-24T12:16:59.641Z,28.52
2019-04-24T12:19:07.831Z,28.60
2019-04-24T12:21:21.759Z,28.27
2019-04-24T12:23:17.683Z,27.86
2019-04-24T12:25:34.694Z,27.85
2019-04-24T12:27:05.112Z,28.08
2019-04-24T12:29:22.464Z,27.93
2019-04-24T12:30:07.883Z,27.96
2019-04-24T12:31:07.782Z,28.01
2019-04-24T12:32:13.352Z,27.98
2019-04-24T12:33:36.347Z,27.70
2019-04-24T12:33:59.922Z,27.78
2019-04-24T12:35:17.839Z,27.63
2019-04-24T12:36:26.646Z,27.70
2019-04-24T12:38:12.365Z,28.00
2019-04-24T12:40:19.629Z,28.11
2019-04-24T12:41:09.815Z,28.05
2019-04-24T12:42:20.708Z,28.27
2019-04-24T12:44:26.516Z,29.32
2019-04-24T12:45:12.421Z,29.61
2019-04-24T12:46:17.799Z,28.93
2019-04-24T12:48:06.412Z,28.63
2019-04-24T12:49:13.867Z,28.10
2019-04-24T12:50:06.929Z,27.71
2019-04-24T12:51:11.879Z,28.02
2019-04-24T12:52:09.918Z,28.74
2019-04-24T12:53:07.000Z,29.61
2019-04-24T12:55:10.571Z,29.69
2019-04-24T12:56:15.406Z,29.08
2019-04-24T12:58:18.149Z,28.45
2019-04-24T12:59:14.670Z,28.79
2019-04-24T13:00:06.349Z,28.89
2019-04-24T13:01:16.643Z,28.89
2019-04-24T13:03:35.499Z,29.23
2019-04-24T13:04:21.686Z,29.14
2019-04-24T13:05:31.225Z,29.29
2019-04-24T13:06:06.561Z,29.27
2019-04-24T13:07:07.162Z,28.30
2019-04-24T13:08:11.202Z,28.00
2019-04-24T13:09:19.406Z,27.36
2019-04-24T13:10:14.214Z,27.27
2019-04-24T13:11:16.054Z,27.55
2019-04-24T13:12:29.241Z,27.14
2019-04-24T13:14:29.778Z,28.14
2019-04-24T13:15:16.261Z,27.82
2019-04-24T13:16:13.650Z,27.49
2019-04-24T13:17:23.051Z,27.37
2019-04-24T13:18:15.707Z,27.48
2019-04-24T13:19:45.042Z,27.74
2019-04-24T13:20:47.197Z,28.12
2019-04-24T13:21:49.911Z,28.23
2019-04-24T13:22:53.182Z,28.60
2019-04-24T13:23:58.455Z,28.82
2019-04-24T13:25:03.570Z,28.59
2019-04-24T13:26:14.172Z,27.96
2019-04-24T13:27:16.255Z,28.01
2019-04-24T13:29:28.424Z,27.87
2019-04-24T13:33:20.900Z,27.73
2019-04-24T13:34:21.557Z,27.74
2019-04-24T13:35:17.922Z,28.30
2019-04-24T13:37:18.645Z,28.97
2019-04-24T13:39:17.047Z,28.48
2019-04-24T13:40:17.885Z,28.72
2019-04-24T13:41:08.153Z,28.47
2019-04-24T13:43:39.560Z,27.54
2019-04-24T13:45:17.136Z,27.54
2019-04-24T13:46:06.461Z,27.25
2019-04-24T13:47:09.463Z,27.35
2019-04-24T13:49:06.292Z,27.77
2019-04-24T13:50:18.381Z,27.75
2019-04-24T13:51:08.185Z,27.67
2019-04-24T13:53:33.835Z,27.36
2019-04-24T13:54:13.417Z,27.37
2019-04-24T13:56:03.361Z,27.87
2019-04-24T13:59:10.341Z,27.03
2019-04-24T14:00:25.730Z,26.96
2019-04-24T14:02:10.137Z,27.07
2019-04-24T14:03:24.930Z,27.12
2019-04-24T14:04:15.535Z,27.10
2019-04-24T14:05:16.756Z,27.12
2019-04-24T14:06:38.679Z,27.42
2019-04-24T14:11:40.135Z,27.92
2019-04-24T14:12:20.152Z,27.89
2019-04-24T14:12:26.631Z,27.71
2019-04-24T14:13:08.717Z,28.14
2019-04-24T14:14:12.446Z,28.10
2019-04-24T14:16:14.873Z,27.21
2019-04-24T14:17:09.691Z,27.14
2019-04-24T14:18:16.702Z,26.90
2019-04-24T14:19:26.211Z,26.97
2019-04-24T14:20:29.649Z,27.15
2019-04-24T14:21:11.237Z,27.10
2019-04-24T14:22:05.898Z,27.21
2019-04-24T14:23:13.286Z,27.10
2019-04-24T14:25:22.412Z,27.49
2019-04-24T14:27:13.322Z,27.80
2019-04-24T14:28:20.043Z,27.96
2019-04-24T14:29:14.635Z,28.33
2019-04-24T14:30:15.552Z,28.38
2019-04-24T14:32:11.451Z,28.22
2019-04-24T14:33:26.179Z,28.14
2019-04-24T14:34:18.922Z,28.04
2019-04-24T14:35:32.804Z,28.23
2019-04-24T14:38:20.640Z,28.89
2019-04-24T14:40:21.586Z,28.37
2019-04-24T14:41:16.947Z,28.79
2019-04-24T14:42:19.496Z,28.93
2019-04-24T14:43:19.204Z,28.60
2019-04-24T14:44:26.684Z,27.93
2019-04-24T14:46:20.330Z,28.01
2019-04-24T14:47:24.075Z,28.08
2019-04-24T14:48:13.429Z,28.27
2019-04-24T14:49:25.612Z,27.96
2019-04-24T14:51:11.081Z,28.19
2019-04-24T14:52:23.952Z,28.20
2019-04-24T14:53:09.741Z,28.39
2019-04-24T14:54:16.190Z,28.69
2019-04-24T14:56:12.514Z,28.44
2019-04-24T14:57:15.081Z,28.78
2019-04-24T14:58:10.357Z,28.63
2019-04-24T14:59:20.809Z,29.08
2019-04-24T15:00:18.792Z,29.38
2019-04-24T15:01:09.835Z,29.50
2019-04-24T15:03:13.134Z,28.98
2019-04-24T15:04:15.379Z,29.12
2019-04-24T15:07:18.206Z,28.63
2019-04-24T15:08:16.995Z,28.41
2019-04-24T15:09:13.586Z,28.76
2019-04-24T15:10:18.311Z,28.60
2019-04-24T15:11:11.121Z,28.70
2019-04-24T15:12:21.214Z,28.57
2019-04-24T15:13:23.518Z,28.26
2019-04-24T15:14:22.674Z,28.08
2019-04-24T15:16:35.984Z,27.78
2019-04-24T15:17:14.279Z,28.00
2019-04-24T15:19:19.495Z,28.23
2019-04-24T15:20:13.816Z,28.29
2019-04-24T15:21:16.261Z,28.32
2019-04-24T15:22:24.298Z,28.39
2019-04-24T15:23:17.733Z,28.27
2019-04-24T15:24:28.491Z,28.17
2019-04-24T15:26:19.109Z,28.30
2019-04-24T15:27:14.038Z,28.07
2019-04-24T15:29:20.158Z,27.90
2019-04-24T15:30:12.814Z,27.90
2019-04-24T15:31:05.351Z,28.01
2019-04-24T15:33:16.155Z,28.22
2019-04-24T15:34:16.441Z,27.89
2019-04-24T15:35:25.120Z,27.80
2019-04-24T15:37:19.021Z,27.85
2019-04-24T15:38:09.925Z,27.58
2019-04-24T15:39:16.828Z,27.36
2019-04-24T15:40:29.395Z,27.26
2019-04-24T15:41:24.772Z,27.33
2019-04-24T15:42:11.225Z,27.12
2019-04-24T15:43:18.549Z,26.93
2019-04-24T15:44:06.985Z,26.62
2019-04-24T15:45:11.649Z,26.58
2019-04-24T15:46:08.593Z,26.40
2019-04-24T15:48:17.601Z,26.53
2019-04-24T15:49:12.598Z,26.53
2019-04-24T15:50:18.446Z,26.48
2019-04-24T15:51:05.623Z,26.36
2019-04-24T15:51:42.569Z,26.10
2019-04-24T15:52:42.591Z,26.05
2019-04-24T15:53:42.545Z,25.88
2019-04-24T15:54:42.542Z,26.13
2019-04-24T15:55:42.531Z,26.28
2019-04-24T15:56:42.537Z,26.31
2019-04-24T15:57:43.800Z,26.34
2019-04-24T15:58:51.727Z,26.34
2019-04-24T16:00:06.364Z,26.53
2019-04-24T16:04:17.748Z,26.16
2019-04-24T16:04:54.825Z,26.02
2019-04-24T16:05:42.405Z,25.99
2019-04-24T16:06:42.388Z,25.81
2019-04-24T16:07:42.380Z,25.80
2019-04-24T16:08:42.369Z,25.62
2019-04-24T16:09:42.349Z,25.66
2019-04-24T16:10:42.345Z,25.78
2019-04-24T16:11:42.331Z,25.75
2019-04-24T16:12:42.323Z,25.69
2019-04-24T16:13:49.580Z,25.51
2019-04-24T16:15:09.664Z,25.46
2019-04-24T16:16:22.379Z,25.43
2019-04-24T16:20:13.700Z,25.43
2019-04-24T16:21:14.152Z,25.40
2019-04-24T16:22:09.663Z,25.17
2019-04-24T16:23:12.629Z,25.16
2019-04-24T16:25:12.677Z,25.13
2019-04-24T16:26:15.791Z,25.03
2019-04-24T16:27:14.332Z,25.04
2019-04-24T16:28:14.314Z,24.86
2019-04-24T16:30:13.897Z,24.73
2019-04-24T16:31:15.814Z,24.85
2019-04-24T16:32:30.532Z,24.85
2019-04-24T16:34:09.809Z,24.89
2019-04-24T16:35:14.955Z,24.91
2019-04-24T16:37:16.669Z,25.10
2019-04-24T16:38:21.672Z,25.07
2019-04-24T16:40:29.871Z,25.18
2019-04-24T16:41:22.574Z,25.10
2019-04-24T16:42:26.396Z,25.10
2019-04-24T16:47:02.896Z,25.29
2019-04-24T16:48:26.678Z,25.51
2019-04-24T16:49:15.769Z,25.54
2019-04-24T16:50:23.476Z,25.65
2019-04-24T16:53:10.123Z,25.99
2019-04-24T16:55:12.241Z,26.00
2019-04-24T16:56:12.030Z,26.25
2019-04-24T16:59:09.878Z,27.21
2019-04-24T17:00:23.784Z,27.47
2019-04-24T17:01:26.953Z,27.54
2019-04-24T17:03:26.193Z,27.83
2019-04-24T17:06:30.086Z,26.83
2019-04-24T17:10:12.463Z,25.44
2019-04-24T17:11:26.487Z,25.10
2019-04-24T17:12:11.885Z,25.01
2019-04-24T17:13:14.832Z,24.95
2019-04-24T17:14:18.486Z,24.92
2019-04-24T17:15:09.731Z,24.74
2019-04-24T17:16:18.490Z,24.66
2019-04-24T17:18:23.639Z,24.51
2019-04-24T17:20:11.040Z,24.54
2019-04-24T17:22:13.540Z,24.45
2019-04-24T17:24:22.995Z,24.29
2019-04-24T17:25:08.727Z,24.28
2019-04-24T17:26:22.902Z,24.20
2019-04-24T17:27:14.892Z,24.24
2019-04-24T17:28:16.046Z,24.14
2019-04-24T17:31:17.171Z,24.17
2019-04-24T17:32:17.677Z,24.10
2019-04-24T17:35:20.544Z,23.96
2019-04-24T17:36:22.315Z,23.92
2019-04-24T17:37:41.169Z,23.92
2019-04-24T17:38:41.152Z,23.83
2019-04-24T17:39:41.142Z,23.81
2019-04-24T17:40:41.120Z,23.84
2019-04-24T17:41:49.078Z,23.80
2019-04-24T17:43:05.147Z,23.80
2019-04-24T17:45:16.254Z,23.74
2019-04-24T17:46:10.780Z,23.74
2019-04-24T17:47:29.715Z,23.74
2019-04-24T17:51:20.332Z,23.63
2019-04-24T17:52:37.727Z,23.54
2019-04-24T17:53:15.016Z,23.58
2019-04-24T17:54:09.388Z,23.51
2019-04-24T17:55:04.686Z,23.44
2019-04-24T17:56:08.503Z,23.44
2019-04-24T17:57:13.131Z,23.37
2019-04-24T17:58:41.482Z,23.27
2019-04-24T17:59:40.846Z,23.28
2019-04-24T18:00:41.934Z,23.10
2019-04-24T18:01:41.272Z,23.06
2019-04-24T18:02:42.116Z,23.03
2019-04-24T18:03:40.784Z,22.99
2019-04-24T18:04:41.626Z,22.98
2019-04-24T18:05:40.791Z,22.90
2019-04-24T18:06:42.092Z,22.76
2019-04-24T18:07:41.483Z,22.75
2019-04-24T18:08:40.708Z,22.70
2019-04-24T18:09:41.944Z,22.66
2019-04-24T18:10:41.701Z,22.63
2019-04-24T18:11:41.810Z,22.63
2019-04-24T18:12:41.771Z,22.53
2019-04-24T18:13:42.056Z,22.50
2019-04-24T18:14:40.800Z,22.45
2019-04-24T18:15:42.191Z,22.36
2019-04-24T18:16:40.585Z,22.36
2019-04-24T18:17:42.106Z,22.32